aviador You're here:

FMCZ Decoded Metar

DZAOUDZI in MAYOTTE ISLAND
Report Time2017-08-20 19:00:00
UTC Time2017-08-20 19:09:06
Flight Rules vfr VFR
Wind180° at 10 kt
W.Decomp.*RWY 16: 8.8 kt HW 4.7 kt RCW
W.Rank180° ranks 2
Current wind is above 180° avg. (8.2)
Visibility9999 m
Phenomena:N/A
Clouds:N/A
Expected CloudBase > 2,000 ft AGL from Temp-Dew spread
CeilingNone
Temp25°C (ISA +10)
Dew Point20°C (74% RH)
QNH1017 hPa
Density Alt1,362 ft
Elevation23 ft
Report Wrong Elevation
Raw Report
METAR FMCZ 201900Z AUTO 18010KT 9999 NCD 25/20 Q1017 NOSIG=####018000160####
SADC31 EHDB 201900

Extra information for FMCZ:More info

Metar Taf Metar & Taf Last 4 Metars F.Rules Stats Wind Profile Meteogram Temp Stats Airport Information Weather charts Add Link Nearby VenuesMetar ALERT Operation Metar Decoded Social comments